Time;durP1;ratioP1;P1;durP2;ratioP2;P2;SDS_P1;SDS_P2;PMS_P1;PMS_P2;Temp;Humidity;BMP_temperature;BMP_pressure;BME280_temperature;BME280_humidity;BME280_pressure;Samples;Min_cycle;Max_cycle;Signal;HPM_P1;HPM_P2
2022/06/25 00:00:54;;;;;;;2.73;2.27;;;19.20;4.40;;;;;;5073490;28;20169;-69
2022/06/25 00:03:20;;;;;;;3.07;2.47;;;19.20;7.50;;;;;;5073312;28;20177;-69
2022/06/25 00:05:45;;;;;;;3.90;2.17;;;19.20;8.80;;;;;;5072945;28;20250;-69
2022/06/25 00:08:11;;;;;;;2.73;2.23;;;19.10;7.90;;;;;;5071490;28;20247;-68
2022/06/25 00:10:38;;;;;;;2.90;2.70;;;19.10;4.80;;;;;;5072942;28;20291;-69
2022/06/25 00:13:03;;;;;;;4.70;2.20;;;19.10;7.00;;;;;;5073158;28;20247;-69
2022/06/25 00:15:29;;;;;;;4.97;2.87;;;19.10;6.50;;;;;;5073156;28;20234;-69
2022/06/25 00:17:55;;;;;;;2.87;2.67;;;19.10;7.60;;;;;;5073023;28;20183;-68
2022/06/25 00:20:20;;;;;;;5.00;3.30;;;19.00;9.90;;;;;;5071851;28;20203;-68
2022/06/25 00:22:46;;;;;;;3.10;2.90;;;19.00;11.90;;;;;;5072895;28;20560;-68
2022/06/25 00:25:11;;;;;;;4.53;2.90;;;19.00;12.80;;;;;;5071584;28;20560;-68
2022/06/25 00:27:37;;;;;;;4.63;3.00;;;19.00;12.50;;;;;;5073162;28;20254;-68
2022/06/25 00:30:05;;;;;;;3.30;2.80;;;19.00;12.30;;;;;;5073141;28;20536;-68
2022/06/25 00:32:31;;;;;;;3.03;2.83;;;19.00;13.30;;;;;;5072979;28;20168;-69
2022/06/25 00:34:56;;;;;;;6.13;3.33;;;19.00;15.00;;;;;;5073034;28;20183;-69
2022/06/25 00:37:22;;;;;;;5.53;3.07;;;19.00;18.30;;;;;;5072749;28;20210;-68
2022/06/25 00:39:48;;;;;;;3.43;2.60;;;18.90;19.40;;;;;;5072704;28;20639;-69
2022/06/25 00:42:14;;;;;;;3.87;2.77;;;18.90;20.40;;;;;;5073192;28;20510;-68
2022/06/25 00:44:40;;;;;;;4.90;2.63;;;18.90;21.40;;;;;;5072982;28;20172;-69
2022/06/25 00:47:09;;;;;;;6.20;3.07;;;18.90;21.50;;;;;;5072860;28;20295;-69
2022/06/25 00:49:35;;;;;;;3.20;2.63;;;18.90;20.40;;;;;;5073040;28;20310;-68
2022/06/25 00:52:10;;;;;;;3.97;2.53;;;18.80;22.30;;;;;;5076425;28;20164;-69
2022/06/25 00:54:37;;;;;;;3.33;2.90;;;18.90;21.10;;;;;;5076601;28;20169;-68
2022/06/25 00:57:06;;;;;;;2.80;2.60;;;18.90;19.00;;;;;;5077060;28;20204;-70
2022/06/25 00:59:37;;;;;;;3.60;2.67;;;18.90;19.50;;;;;;5077062;28;20177;-69
2022/06/25 01:02:03;;;;;;;3.60;2.87;;;18.80;17.50;;;;;;5077118;28;20176;-69
2022/06/25 01:04:29;;;;;;;6.40;3.43;;;18.80;17.50;;;;;;5076899;28;20172;-69
2022/06/25 01:06:55;;;;;;;2.90;2.60;;;18.80;19.70;;;;;;5075020;28;20224;-69
2022/06/25 01:09:21;;;;;;;3.87;2.70;;;18.90;15.60;;;;;;5076387;28;20172;-69
2022/06/25 01:11:47;;;;;;;3.23;2.93;;;18.80;15.60;;;;;;5076761;28;20647;-68
2022/06/25 01:14:14;;;;;;;3.17;2.90;;;18.80;16.50;;;;;;5076798;28;20179;-69
2022/06/25 01:16:40;;;;;;;3.87;2.67;;;18.80;14.10;;;;;;5076792;28;20195;-69
2022/06/25 01:19:11;;;;;;;3.53;2.83;;;18.80;13.90;;;;;;5076456;28;20656;-69
2022/06/25 01:21:37;;;;;;;5.03;3.23;;;18.80;13.30;;;;;;5076595;28;20342;-68
2022/06/25 01:24:05;;;;;;;3.50;2.70;;;18.80;15.10;;;;;;5076205;28;20165;-69
2022/06/25 01:26:36;;;;;;;3.60;2.83;;;18.80;13.10;;;;;;5076531;28;20212;-68
2022/06/25 01:29:03;;;;;;;4.13;2.73;;;18.80;14.00;;;;;;5076231;28;20222;-69
2022/06/25 01:31:29;;;;;;;4.87;2.93;;;18.90;10.30;;;;;;5076188;28;20161;-68
2022/06/25 01:33:56;;;;;;;3.83;3.00;;;19.00;6.90;;;;;;5076040;28;20176;-69
2022/06/25 01:36:22;;;;;;;4.60;2.70;;;19.00;3.90;;;;;;5075784;28;20188;-69
2022/06/25 01:38:47;;;;;;;3.00;2.80;;;19.10;1.00;;;;;;5075629;28;20172;-68
2022/06/25 01:41:13;;;;;;;2.87;2.60;;;19.20;1.00;;;;;;5076127;28;20251;-69
2022/06/25 01:43:39;;;;;;;4.27;2.57;;;19.20;1.00;;;;;;5076084;28;20183;-68
2022/06/25 01:46:06;;;;;;;2.57;2.30;;;19.20;1.00;;;;;;5074656;28;20173;-68
2022/06/25 01:48:31;;;;;;;2.93;2.63;;;19.10;1.00;;;;;;5075757;28;20664;-68
2022/06/25 01:50:57;;;;;;;5.07;3.43;;;19.00;1.00;;;;;;5075963;28;20172;-69
2022/06/25 01:53:23;;;;;;;3.70;3.40;;;19.00;6.20;;;;;;5075377;28;20628;-69
2022/06/25 01:55:48;;;;;;;5.23;3.60;;;18.90;8.20;;;;;;5075849;28;20663;-69
2022/06/25 01:58:15;;;;;;;4.47;2.57;;;18.90;11.30;;;;;;5075771;28;20656;-69
2022/06/25 02:00:42;;;;;;;3.57;3.13;;;18.90;13.40;;;;;;5075789;28;20199;-68
2022/06/25 02:03:08;;;;;;;3.67;3.00;;;18.80;17.30;;;;;;5074428;28;20628;-68
2022/06/25 02:08:19;;;;;;;4.40;2.90;;;18.80;20.80;;;;;;5075305;28;20303;-69
2022/06/25 02:10:47;;;;;;;5.80;3.40;;;18.70;22.70;;;;;;5075571;28;20618;-69
2022/06/25 02:13:13;;;;;;;3.73;2.90;;;18.70;26.20;;;;;;5075311;28;20478;-68
2022/06/25 02:15:38;;;;;;;2.97;2.73;;;18.60;26.50;;;;;;5074096;28;20181;-69
2022/06/25 02:18:04;;;;;;;5.03;3.20;;;18.60;28.90;;;;;;5075457;28;20215;-68
2022/06/25 02:20:30;;;;;;;4.87;3.50;;;18.60;30.20;;;;;;5075331;28;20161;-68
2022/06/25 02:22:56;;;;;;;5.33;4.10;;;18.60;30.20;;;;;;5074841;28;20230;-68
2022/06/25 02:25:22;;;;;;;4.80;3.47;;;18.60;29.30;;;;;;5074160;28;20659;-68
2022/06/25 02:27:48;;;;;;;4.10;3.50;;;18.60;28.60;;;;;;5074873;28;20224;-68
2022/06/25 02:30:13;;;;;;;3.83;3.53;;;18.70;29.00;;;;;;5075496;28;20255;-68
2022/06/25 02:32:39;;;;;;;4.03;3.63;;;18.60;27.50;;;;;;5075426;28;20647;-68
2022/06/25 02:35:05;;;;;;;4.83;3.60;;;18.60;27.50;;;;;;5075129;28;20176;-68
2022/06/25 02:37:30;;;;;;;4.70;3.50;;;18.60;29.90;;;;;;5074710;28;20165;-68
2022/06/25 02:39:56;;;;;;;5.83;3.40;;;18.60;29.90;;;;;;5075001;28;20187;-68
2022/06/25 02:42:22;;;;;;;4.60;4.13;;;18.60;31.80;;;;;;5075047;28;20164;-68
2022/06/25 02:44:47;;;;;;;6.73;3.87;;;18.60;33.20;;;;;;5075146;28;20631;-68
2022/06/25 02:47:13;;;;;;;5.30;4.17;;;18.50;35.30;;;;;;5074753;28;20212;-68
2022/06/25 02:49:38;;;;;;;6.97;4.80;;;18.50;37.70;;;;;;5074851;28;20210;-69
2022/06/25 02:52:04;;;;;;;7.00;3.63;;;18.40;38.70;;;;;;5074310;28;20172;-68
2022/06/25 02:54:30;;;;;;;4.37;3.57;;;18.30;44.00;;;;;;5074484;28;20180;-67
2022/06/25 02:59:41;;;;;;;4.03;3.63;;;18.30;46.00;;;;;;5074878;28;20286;-68
2022/06/25 03:02:06;;;;;;;5.30;3.70;;;18.40;44.80;;;;;;5074582;28;20204;-69
2022/06/25 03:04:32;;;;;;;7.70;3.70;;;18.40;43.90;;;;;;5074266;28;20799;-69
2022/06/25 03:06:57;;;;;;;5.73;3.47;;;18.40;44.70;;;;;;5073959;28;20242;-69
2022/06/25 03:09:23;;;;;;;6.10;3.93;;;18.30;47.20;;;;;;5074369;28;20176;-69
2022/06/25 03:11:49;;;;;;;7.13;3.80;;;18.40;46.80;;;;;;5074418;28;20649;-69
2022/06/25 03:14:16;;;;;;;6.37;3.80;;;18.40;42.30;;;;;;5073966;28;20242;-68
2022/06/25 03:16:41;;;;;;;6.37;3.60;;;18.40;43.70;;;;;;5074257;28;20667;-68
2022/06/25 03:19:08;;;;;;;4.53;4.13;;;18.40;44.20;;;;;;5073820;28;20184;-68
2022/06/25 03:21:33;;;;;;;4.33;3.60;;;18.30;47.10;;;;;;5074007;28;20165;-68
2022/06/25 03:23:59;;;;;;;5.00;3.47;;;18.40;47.10;;;;;;5073616;28;20165;-69
2022/06/25 03:26:25;;;;;;;5.10;3.10;;;18.40;45.20;;;;;;5073932;28;20200;-69
2022/06/25 03:28:51;;;;;;;7.13;3.73;;;18.40;45.10;;;;;;5073719;28;20218;-69
2022/06/25 03:31:16;;;;;;;5.27;3.97;;;18.40;45.30;;;;;;5073866;28;20173;-70
2022/06/25 03:33:42;;;;;;;4.60;3.93;;;18.40;46.10;;;;;;5073263;28;20190;-69
2022/06/25 03:36:07;;;;;;;5.73;4.80;;;18.50;44.10;;;;;;5073698;28;20164;-69
2022/06/25 03:38:33;;;;;;;7.57;4.47;;;18.50;42.20;;;;;;5073370;28;20179;-68
2022/06/25 03:43:43;;;;;;;7.30;4.90;;;18.60;41.50;;;;;;5073632;28;20182;-68
2022/06/25 03:46:09;;;;;;;7.33;4.33;;;18.70;34.60;;;;;;5073493;28;20255;-69
2022/06/25 03:48:34;;;;;;;5.17;4.57;;;18.90;29.90;;;;;;5073284;28;20177;-68
2022/06/25 03:51:00;;;;;;;6.30;4.50;;;19.10;21.30;;;;;;5073559;28;20260;-68
2022/06/25 03:53:26;;;;;;;7.47;3.90;;;19.30;12.70;;;;;;5073074;28;20176;-70
2022/06/25 03:55:52;;;;;;;5.93;3.90;;;19.40;4.70;;;;;;5071863;28;20210;-68
2022/06/25 03:58:17;;;;;;;5.83;3.80;;;19.40;10.10;;;;;;5072278;28;20175;-69
2022/06/25 04:00:43;;;;;;;4.53;3.70;;;19.40;8.30;;;;;;5072230;28;20656;-69
2022/06/25 04:03:09;;;;;;;4.70;4.30;;;19.30;8.90;;;;;;5073142;28;20248;-69
2022/06/25 04:05:34;;;;;;;3.93;3.60;;;19.30;16.90;;;;;;5071588;28;20173;-69
2022/06/25 04:08:00;;;;;;;5.70;3.45;;;19.30;15.30;;;;;;5072951;28;20207;-69
2022/06/25 04:10:25;;;;;;;6.18;3.90;;;19.60;3.80;;;;;;5073612;28;20172;-69
2022/06/25 04:12:51;;;;;;;6.37;3.90;;;19.90;1.00;;;;;;5073179;28;20175;-69
2022/06/25 04:15:17;;;;;;;6.07;3.85;;;19.80;1.00;;;;;;5073522;28;20188;-69
2022/06/25 04:17:43;;;;;;;4.90;3.45;;;19.70;1.00;;;;;;5072840;28;20529;-69
2022/06/25 04:20:10;;;;;;;4.93;3.45;;;19.60;1.00;;;;;;5072053;28;20184;-69
2022/06/25 04:22:37;;;;;;;3.60;3.30;;;19.70;1.00;;;;;;5072980;28;20692;-69
2022/06/25 04:25:03;;;;;;;4.47;3.55;;;20.10;1.00;;;;;;5072598;28;20180;-68
2022/06/25 04:30:13;;;;;;;3.10;2.65;;;20.50;1.00;;;;;;5073186;28;20183;-69
2022/06/25 04:32:38;;;;;;;3.67;3.10;;;20.20;1.00;;;;;;5072690;28;20643;-69
2022/06/25 04:35:05;;;;;;;4.25;2.90;;;20.50;1.00;;;;;;5073031;28;20168;-69
2022/06/25 04:37:30;;;;;;;3.60;2.70;;;20.90;1.00;;;;;;5073032;28;20173;-68
2022/06/25 04:39:56;;;;;;;6.80;2.85;;;21.00;1.00;;;;;;5072678;28;20165;-68
2022/06/25 04:42:21;;;;;;;4.13;2.60;;;21.00;1.00;;;;;;5072950;28;20711;-68
2022/06/25 04:44:47;;;;;;;2.90;2.70;;;20.60;1.00;;;;;;5072861;28;20267;-68
2022/06/25 04:47:12;;;;;;;5.40;2.72;;;20.10;1.00;;;;;;5072500;28;20215;-69
2022/06/25 04:49:38;;;;;;;3.63;2.85;;;19.90;1.00;;;;;;5072585;28;20221;-69
2022/06/25 04:52:04;;;;;;;4.28;2.78;;;19.60;1.90;;;;;;5072653;28;20183;-68
2022/06/25 04:54:29;;;;;;;3.17;2.88;;;19.40;12.50;;;;;;5072465;28;20167;-69
2022/06/25 04:56:56;;;;;;;3.50;2.53;;;19.30;17.30;;;;;;5072758;28;20192;-69
2022/06/25 04:59:22;;;;;;;4.60;2.70;;;19.30;18.30;;;;;;5071461;28;20164;-69
2022/06/25 05:01:47;;;;;;;3.05;2.40;;;19.40;17.20;;;;;;5072411;28;20537;-69
2022/06/25 05:04:13;;;;;;;5.03;2.37;;;19.30;18.40;;;;;;5072560;28;20585;-69
2022/06/25 05:06:39;;;;;;;6.07;2.30;;;19.30;20.90;;;;;;5072416;28;20228;-69
2022/06/25 05:09:04;;;;;;;3.33;2.00;;;19.10;29.10;;;;;;5072496;28;20215;-69
2022/06/25 05:11:30;;;;;;;2.53;2.30;;;19.10;26.70;;;;;;5072505;28;20165;-69
2022/06/25 05:13:55;;;;;;;3.40;2.20;;;19.10;26.10;;;;;;5072522;28;20208;-69
2022/06/25 05:16:21;;;;;;;2.50;2.28;;;19.10;28.50;;;;;;5072443;28;20211;-69
2022/06/25 05:18:48;;;;;;;4.70;2.40;;;19.20;27.50;;;;;;5072083;28;20218;-69
2022/06/25 05:21:14;;;;;;;2.83;2.40;;;19.40;18.60;;;;;;5072373;28;20173;-69
2022/06/25 05:23:39;;;;;;;3.63;2.53;;;19.40;17.30;;;;;;5072526;28;20219;-69
2022/06/25 05:26:05;;;;;;;2.58;2.38;;;19.50;16.90;;;;;;5072497;28;20168;-69
2022/06/25 05:28:30;;;;;;;5.10;2.72;;;19.50;12.70;;;;;;5072446;28;20181;-69
2022/06/25 05:30:56;;;;;;;4.00;2.30;;;19.60;12.40;;;;;;5072189;28;20172;-69
2022/06/25 05:33:22;;;;;;;7.83;2.63;;;19.60;7.70;;;;;;5072357;28;20176;-68
2022/06/25 05:35:48;;;;;;;2.45;2.25;;;19.70;9.50;;;;;;5071433;28;20246;-68
2022/06/25 05:38:14;;;;;;;3.70;2.13;;;19.70;1.00;;;;;;5075462;28;20178;-68
2022/06/25 05:40:40;;;;;;;2.97;2.03;;;19.60;3.60;;;;;;5075678;28;20629;-69
2022/06/25 05:43:05;;;;;;;3.78;2.10;;;19.70;6.30;;;;;;5076055;28;20523;-68
2022/06/25 05:45:31;;;;;;;4.40;2.15;;;19.70;3.30;;;;;;5075503;28;20581;-69
2022/06/25 05:47:57;;;;;;;2.83;2.40;;;19.60;6.60;;;;;;5075434;28;20212;-68
2022/06/25 05:50:23;;;;;;;2.63;2.10;;;19.70;5.10;;;;;;5075747;28;20632;-68
2022/06/25 05:52:49;;;;;;;8.40;2.30;;;19.90;1.00;;;;;;5075861;28;20168;-68
2022/06/25 05:55:14;;;;;;;2.08;1.85;;;20.00;1.00;;;;;;5075257;28;20168;-68
2022/06/25 05:57:40;;;;;;;3.83;2.00;;;19.90;1.00;;;;;;5075593;28;20173;-68
2022/06/25 06:00:08;;;;;;;4.70;1.95;;;19.90;1.00;;;;;;5075247;28;20218;-69
2022/06/25 06:02:34;;;;;;;5.07;1.92;;;19.90;1.00;;;;;;5075535;28;20644;-69
2022/06/25 06:04:59;;;;;;;4.25;1.70;;;19.90;1.00;;;;;;5074168;28;20225;-70
2022/06/25 06:07:25;;;;;;;3.20;1.80;;;19.90;1.00;;;;;;5075030;28;20274;-68
2022/06/25 06:09:50;;;;;;;3.75;1.88;;;19.90;1.00;;;;;;5075463;28;20173;-69
2022/06/25 06:12:16;;;;;;;3.35;2.00;;;19.80;1.00;;;;;;5073527;28;20639;-68
2022/06/25 06:14:42;;;;;;;4.43;2.13;;;19.80;1.00;;;;;;5074989;28;20694;-68
2022/06/25 06:17:08;;;;;;;2.53;1.90;;;19.80;1.00;;;;;;5074972;28;20183;-69
2022/06/25 06:19:33;;;;;;;3.97;1.75;;;19.70;1.00;;;;;;5075158;28;20626;-69
2022/06/25 06:21:59;;;;;;;5.45;1.77;;;19.70;4.90;;;;;;5075062;28;20168;-69
2022/06/25 06:24:24;;;;;;;3.05;2.10;;;19.70;8.40;;;;;;5075292;28;20251;-69
2022/06/25 06:26:50;;;;;;;2.43;1.60;;;19.70;9.70;;;;;;5074880;28;20200;-68
2022/06/25 06:29:17;;;;;;;5.38;2.00;;;19.70;8.70;;;;;;5073332;28;20176;-69
2022/06/25 06:31:43;;;;;;;3.53;2.13;;;19.90;2.60;;;;;;5074646;28;20298;-68
2022/06/25 06:34:08;;;;;;;6.88;1.83;;;19.90;4.70;;;;;;5075101;28;20197;-70
2022/06/25 06:36:34;;;;;;;4.90;1.98;;;20.40;1.00;;;;;;5075065;28;20168;-69
2022/06/25 06:39:00;;;;;;;3.50;1.90;;;21.10;1.00;;;;;;5074516;28;20172;-70
2022/06/25 06:41:25;;;;;;;3.60;1.60;;;22.10;1.00;;;;;;5073630;28;20168;-69
2022/06/25 06:43:51;;;;;;;4.07;2.00;;;22.10;1.00;;;;;;5074191;28;20184;-68
2022/06/25 06:46:16;;;;;;;4.65;2.13;;;22.20;1.00;;;;;;5074323;28;20204;-69
2022/06/25 06:48:42;;;;;;;3.38;1.70;;;21.80;1.00;;;;;;5074211;28;20173;-69
2022/06/25 06:51:08;;;;;;;1.75;1.50;;;21.40;1.00;;;;;;5074944;28;20588;-69
2022/06/25 06:53:34;;;;;;;5.28;2.17;;;21.40;1.00;;;;;;5074116;28;20644;-69
2022/06/25 06:56:00;;;;;;;4.90;1.98;;;21.40;1.00;;;;;;5074118;28;20189;-69
2022/06/25 06:58:27;;;;;;;5.60;1.90;;;21.20;1.00;;;;;;5073570;28;20237;-68
2022/06/25 07:00:52;;;;;;;4.65;1.60;;;21.60;1.00;;;;;;5074261;28;20172;-70
2022/06/25 07:03:18;;;;;;;3.95;1.98;;;21.80;1.00;;;;;;5074428;28;20528;-69
2022/06/25 07:05:43;;;;;;;3.45;1.83;;;22.20;1.00;;;;;;5074079;28;20220;-70
2022/06/25 07:08:09;;;;;;;2.85;1.60;;;22.40;1.00;;;;;;5074080;28;20246;-70
2022/06/25 07:10:35;;;;;;;7.95;2.28;;;22.60;1.00;;;;;;5073964;28;20173;-70
2022/06/25 07:13:00;;;;;;;4.03;1.90;;;23.00;1.00;;;;;;5072374;28;20651;-69
2022/06/25 07:15:26;;;;;;;3.70;1.88;;;24.50;99.90;;;;;;5074094;28;20175;-69
2022/06/25 07:17:51;;;;;;;4.10;1.73;;;25.30;99.90;;;;;;5072362;28;20184;-69
2022/06/25 07:20:17;;;;;;;1.63;1.42;;;25.00;99.90;;;;;;5072989;28;20538;-69
2022/06/25 07:22:42;;;;;;;2.95;1.60;;;24.90;1.00;;;;;;5073604;28;20238;-69
2022/06/25 07:25:08;;;;;;;3.00;1.70;;;25.10;1.00;;;;;;5073860;28;20164;-69
2022/06/25 07:27:34;;;;;;;3.25;1.90;;;24.80;99.90;;;;;;5073684;28;20208;-70
2022/06/25 07:30:00;;;;;;;3.58;1.88;;;24.80;1.00;;;;;;5073658;28;20165;-70
2022/06/25 07:32:25;;;;;;;4.25;1.90;;;25.20;1.00;;;;;;5072581;28;20191;-69
2022/06/25 07:34:51;;;;;;;4.68;2.35;;;24.50;99.90;;;;;;5073696;28;20207;-69
2022/06/25 07:37:17;;;;;;;4.72;2.08;;;24.10;99.90;;;;;;5073724;28;20208;-69
2022/06/25 07:39:42;;;;;;;5.05;2.15;;;24.40;41.60;;;;;;5073574;28;20165;-69
2022/06/25 07:42:08;;;;;;;3.22;1.98;;;24.30;1.00;;;;;;5073077;28;20191;-70
2022/06/25 07:44:34;;;;;;;5.00;2.30;;;23.70;1.00;;;;;;5072717;28;20553;-69
2022/06/25 07:46:59;;;;;;;2.55;1.95;;;23.60;1.00;;;;;;5073637;28;20653;-70
2022/06/25 07:49:25;;;;;;;3.05;2.08;;;23.10;1.00;;;;;;5073641;28;20273;-69
2022/06/25 07:51:56;;;;;;;2.80;2.33;;;23.10;1.00;;;;;;5073706;28;20746;-69
2022/06/25 07:54:23;;;;;;;3.38;2.80;;;22.90;1.00;;;;;;5072479;28;20204;-69
2022/06/25 07:56:49;;;;;;;4.30;2.80;;;22.40;1.00;;;;;;5073068;28;20192;-69
2022/06/25 07:59:15;;;;;;;4.18;3.40;;;21.90;1.00;;;;;;5072921;28;20599;-69
2022/06/25 08:01:41;;;;;;;5.53;3.60;;;21.90;1.00;;;;;;5072167;28;20157;-69
2022/06/25 08:04:07;;;;;;;6.15;3.50;;;22.10;1.00;;;;;;5073435;28;20172;-69
2022/06/25 08:06:34;;;;;;;3.63;3.28;;;22.60;1.00;;;;;;5072557;28;20297;-69
2022/06/25 08:09:01;;;;;;;3.90;2.83;;;22.90;1.00;;;;;;5072678;28;20631;-69
2022/06/25 08:11:27;;;;;;;3.97;2.65;;;22.50;1.00;;;;;;5072728;28;20234;-69
2022/06/25 08:13:53;;;;;;;4.13;2.63;;;21.70;1.00;;;;;;5073093;28;20570;-69
2022/06/25 08:16:19;;;;;;;4.00;2.63;;;21.50;1.00;;;;;;5072182;28;20164;-69
2022/06/25 08:18:45;;;;;;;4.50;2.78;;;21.50;1.00;;;;;;5072501;28;20202;-69
2022/06/25 08:21:10;;;;;;;5.00;2.55;;;21.90;1.00;;;;;;5072790;28;20164;-70
2022/06/25 08:23:36;;;;;;;4.25;2.40;;;22.70;1.00;;;;;;5072256;28;20225;-72
2022/06/25 08:26:01;;;;;;;3.88;2.38;;;23.50;1.00;;;;;;5072756;28;20172;-70
2022/06/25 08:28:27;;;;;;;5.13;2.50;;;24.60;1.00;;;;;;5072685;28;20236;-70
2022/06/25 08:30:53;;;;;;;2.78;2.35;;;25.70;1.00;;;;;;5072862;28;20746;-71
2022/06/25 08:33:18;;;;;;;4.78;2.70;;;26.90;99.90;;;;;;5072868;28;20255;-71
2022/06/25 08:35:44;;;;;;;4.53;2.70;;;27.90;99.90;;;;;;5072973;28;20175;-71
2022/06/25 08:38:09;;;;;;;5.47;3.15;;;27.80;99.90;;;;;;5072427;28;20620;-70
2022/06/25 08:40:35;;;;;;;4.47;3.13;;;27.60;99.90;;;;;;5072124;28;20218;-70
2022/06/25 08:43:02;;;;;;;4.68;3.00;;;27.10;1.00;;;;;;5072939;28;20173;-72
2022/06/25 08:45:27;;;;;;;3.58;3.00;;;25.90;1.00;;;;;;5072254;28;20706;-70
2022/06/25 08:47:58;;;;;;;4.32;2.50;;;25.20;1.00;;;;;;5072688;28;20204;-69
2022/06/25 08:50:23;;;;;;;4.50;2.58;;;24.20;26.80;;;;;;5072548;28;20161;-70
2022/06/25 08:52:54;;;;;;;4.38;2.85;;;23.60;1.00;;;;;;5072065;28;20222;-69
2022/06/25 08:55:29;;;;;;;4.90;3.17;;;23.50;1.00;;;;;;5072579;28;20567;-69
2022/06/25 08:57:56;;;;;;;3.60;2.78;;;23.50;1.00;;;;;;5072271;28;20623;-70
2022/06/25 09:00:22;;;;;;;5.78;2.97;;;23.50;1.00;;;;;;5072433;28;20175;-70
2022/06/25 09:02:48;;;;;;;5.28;3.30;;;23.90;99.90;;;;;;5072470;28;20516;-70
2022/06/25 09:05:14;;;;;;;5.25;3.92;;;24.70;1.00;;;;;;5072748;28;20180;-70
2022/06/25 09:07:55;;;;;;;4.70;3.65;;;24.50;99.90;;;;;;5071944;28;20220;-70
2022/06/25 09:10:22;;;;;;;4.28;3.30;;;24.70;36.70;;;;;;5071881;28;20180;-70
2022/06/25 09:12:53;;;;;;;5.22;3.50;;;25.10;99.90;;;;;;5075287;28;20252;-70
2022/06/25 09:15:24;;;;;;;5.13;3.10;;;25.20;1.00;;;;;;5076290;28;20180;-70
2022/06/25 09:17:52;;;;;;;3.30;2.50;;;25.80;1.00;;;;;;5076355;28;20183;-70
2022/06/25 09:20:19;;;;;;;3.10;2.47;;;26.20;1.00;;;;;;5076288;28;20173;-71
2022/06/25 09:23:00;;;;;;;4.30;2.90;;;26.10;99.90;;;;;;5075463;28;20269;-71
2022/06/25 09:25:31;;;;;;;6.35;2.60;;;26.30;1.00;;;;;;5076042;28;20210;-70
2022/06/25 09:27:57;;;;;;;5.15;2.92;;;26.20;99.90;;;;;;5075790;28;20671;-70
2022/06/25 09:30:26;;;;;;;5.05;2.85;;;25.60;1.00;;;;;;5076160;28;20196;-70
2022/06/25 09:32:55;;;;;;;3.28;2.70;;;25.50;1.00;;;;;;5076001;28;20177;-70
2022/06/25 09:35:35;;;;;;;4.05;2.97;;;24.80;1.00;;;;;;5075962;28;20208;-70
2022/06/25 09:38:02;;;;;;;4.00;2.83;;;25.10;1.00;;;;;;5075435;28;20169;-70
2022/06/25 09:40:28;;;;;;;4.65;2.65;;;25.30;1.00;;;;;;5075723;28;20318;-71
2022/06/25 09:42:55;;;;;;;6.57;3.33;;;25.90;99.90;;;;;;5075799;28;20180;-72
2022/06/25 09:45:21;;;;;;;6.88;2.85;;;27.40;99.90;;;;;;5074071;28;20606;-72
2022/06/25 09:47:46;;;;;;;4.40;2.88;;;29.00;1.00;;;;;;5075719;28;20201;-72
2022/06/25 09:50:13;;;;;;;3.97;2.55;;;30.30;1.00;;;;;;5074015;28;20260;-73
2022/06/25 09:52:56;;;;;;;5.18;2.92;;;31.60;99.90;;;;;;5074481;28;20179;-72
2022/06/25 09:55:27;;;;;;;5.32;2.65;;;32.20;99.90;;;;;;5075465;28;20169;-72
2022/06/25 09:57:54;;;;;;;4.47;2.70;;;31.30;99.90;;;;;;5074945;28;20177;-71
2022/06/25 10:00:21;;;;;;;6.25;3.47;;;29.40;99.90;;;;;;5074672;28;20165;-71
2022/06/25 10:02:49;;;;;;;4.50;2.95;;;29.50;1.00;;;;;;5074966;28;20647;-71
2022/06/25 10:05:28;;;;;;;3.53;2.95;;;29.50;1.00;;;;;;5074906;28;20183;-71
2022/06/25 10:08:00;;;;;;;4.78;2.65;;;28.80;1.00;;;;;;5054543;28;20238;-71
2022/06/25 10:10:53;;;;;;;4.25;2.53;;;28.70;1.00;;;;;;5055304;28;20161;-71
2022/06/25 10:13:19;;;;;;;6.97;2.88;;;28.00;1.00;;;;;;5051210;28;20181;-71
2022/06/25 10:15:45;;;;;;;5.53;2.45;;;26.60;99.90;;;;;;5055431;28;20174;-70
2022/06/25 10:18:11;;;;;;;5.60;2.72;;;26.40;99.90;;;;;;5055231;28;20192;-71
2022/06/25 10:20:42;;;;;;;4.70;2.53;;;26.50;1.00;;;;;;5054768;28;20177;-70
2022/06/25 10:23:09;;;;;;;4.55;2.50;;;26.00;1.00;;;;;;5053473;28;20173;-70
2022/06/25 10:25:36;;;;;;;3.70;2.35;;;24.80;99.90;;;;;;5054731;28;20165;-71
2022/06/25 10:28:06;;;;;;;5.07;2.65;;;24.80;99.90;;;;;;5054528;28;20201;-71
2022/06/25 10:30:39;;;;;;;4.10;2.60;;;24.80;99.90;;;;;;5054045;28;20169;-71
2022/06/25 10:33:05;;;;;;;3.75;2.15;;;24.50;1.00;;;;;;5054652;28;20651;-70
2022/06/25 10:35:33;;;;;;;3.53;2.50;;;23.90;1.00;;;;;;5053802;28;20173;-71
2022/06/25 10:38:09;;;;;;;4.63;2.28;;;24.10;99.90;;;;;;5054241;28;20174;-71
2022/06/25 10:40:55;;;;;;;10.23;4.03;;;24.90;99.90;;;;;;5054183;28;20173;-71
2022/06/25 10:43:45;;;;;;;3.72;2.97;;;25.50;1.00;;;;;;5054239;28;20686;-71
2022/06/25 10:46:37;;;;;;;5.03;3.00;;;26.10;1.00;;;;;;5054835;28;20215;-72
2022/06/25 10:49:12;;;;;;;2.85;2.13;;;26.20;1.00;;;;;;5052700;28;20225;-70
2022/06/25 10:51:43;;;;;;;2.88;2.67;;;26.40;99.90;;;;;;5054415;28;20254;-71
2022/06/25 10:54:33;;;;;;;3.60;2.40;;;25.20;1.00;;;;;;5053539;28;20239;-71
2022/06/25 10:57:00;;;;;;;3.53;2.10;;;24.40;99.90;;;;;;5051275;28;20201;-71
2022/06/25 10:59:32;;;;;;;4.47;2.13;;;24.60;1.00;;;;;;5053021;28;20173;-71
2022/06/25 11:01:59;;;;;;;2.60;2.13;;;24.30;99.90;;;;;;5054379;28;20177;-71
2022/06/25 11:04:29;;;;;;;2.50;2.30;;;24.20;1.00;;;;;;5054192;28;20173;-71
2022/06/25 11:07:07;;;;;;;3.40;2.30;;;24.00;1.00;;;;;;5067053;28;20250;-70
2022/06/25 11:09:33;;;;;;;4.40;3.05;;;24.20;1.00;;;;;;5072374;28;20176;-70
2022/06/25 11:11:59;;;;;;;3.80;2.83;;;24.40;1.00;;;;;;5074110;28;20173;-70
2022/06/25 11:14:25;;;;;;;5.75;2.30;;;24.30;1.00;;;;;;5074097;28;20327;-70
2022/06/25 11:16:52;;;;;;;4.95;2.80;;;24.30;99.90;;;;;;5072807;28;20592;-71
2022/06/25 11:19:20;;;;;;;2.53;1.67;;;24.30;99.90;;;;;;5073297;28;20180;-72
2022/06/25 11:21:46;;;;;;;1.83;1.65;;;24.60;99.90;;;;;;5073792;28;20245;-71
2022/06/25 11:24:16;;;;;;;2.92;2.35;;;25.80;1.00;;;;;;5073200;28;20172;-71
2022/06/25 11:29:35;;;;;;;3.10;1.85;;;27.40;99.90;;;;;;5073037;28;20203;-71
2022/06/25 11:32:01;;;;;;;3.22;1.90;;;27.20;99.90;;;;;;5073425;28;20164;-70
2022/06/25 11:34:28;;;;;;;2.78;2.58;;;27.30;99.90;;;;;;5073370;28;20168;-70
2022/06/25 11:36:58;;;;;;;3.55;3.25;;;26.80;1.00;;;;;;5073249;28;20237;-70
2022/06/25 11:39:24;;;;;;;2.80;2.55;;;26.90;1.00;;;;;;5073138;28;20318;-71
2022/06/25 11:41:53;;;;;;;3.08;1.55;;;27.00;1.00;;;;;;5073668;28;20711;-70
2022/06/25 11:44:19;;;;;;;2.20;1.60;;;27.40;84.20;;;;;;5072540;28;20183;-71
2022/06/25 11:46:47;;;;;;;1.80;1.55;;;27.10;99.90;;;;;;5072691;28;20198;-71
2022/06/25 11:49:13;;;;;;;1.50;1.40;;;27.20;99.90;;;;;;5073605;28;20180;-71
2022/06/25 11:51:47;;;;;;;3.72;3.13;;;27.00;99.90;;;;;;5073241;28;20183;-71
2022/06/25 11:54:14;;;;;;;2.05;1.83;;;26.80;1.00;;;;;;5073104;28;20177;-71
2022/06/25 11:57:00;;;;;;;3.22;2.03;;;26.50;1.00;;;;;;5072123;28;20192;-71
2022/06/25 11:59:28;;;;;;;1.90;1.70;;;25.90;1.00;;;;;;5072938;28;20643;-72
2022/06/25 12:01:54;;;;;;;4.43;2.25;;;25.60;1.00;;;;;;5072717;28;20199;-71
2022/06/25 12:04:20;;;;;;;2.47;2.38;;;25.50;51.70;;;;;;5072780;28;20257;-70
2022/06/25 12:06:47;;;;;;;2.53;2.00;;;25.10;93.50;;;;;;5072567;28;20224;-71
2022/06/25 12:09:16;;;;;;;2.53;1.95;;;25.00;1.00;;;;;;5070836;28;20172;-70
2022/06/25 12:11:51;;;;;;;2.70;1.60;;;25.10;1.00;;;;;;5073192;28;20165;-71
2022/06/25 12:14:18;;;;;;;3.00;1.48;;;25.10;99.90;;;;;;5072026;28;20178;-69
2022/06/25 12:16:46;;;;;;;3.97;1.80;;;25.10;1.00;;;;;;5072314;28;20599;-71
2022/06/25 12:19:11;;;;;;;2.97;2.78;;;25.30;1.00;;;;;;5072687;28;20211;-71
2022/06/25 12:21:37;;;;;;;2.00;1.50;;;25.40;99.90;;;;;;5072515;28;20173;-71
2022/06/25 12:24:04;;;;;;;4.25;2.20;;;24.90;1.00;;;;;;5072092;28;20525;-71
2022/06/25 12:26:31;;;;;;;1.75;1.65;;;24.60;1.00;;;;;;5072265;28;20165;-69
2022/06/25 12:29:27;;;;;;;3.17;1.60;;;24.30;99.90;;;;;;5072146;28;20343;-70
2022/06/25 12:32:00;;;;;;;1.80;1.70;;;24.40;99.90;;;;;;5069121;28;20185;-70
2022/06/25 12:34:27;;;;;;;3.28;2.13;;;24.40;1.00;;;;;;5072638;28;20322;-70
2022/06/25 12:36:53;;;;;;;3.85;2.83;;;24.50;1.00;;;;;;5070891;28;20207;-70
2022/06/25 12:39:36;;;;;;;2.85;2.33;;;24.80;99.90;;;;;;5072266;28;20157;-71
2022/06/25 12:42:05;;;;;;;3.83;2.50;;;24.70;27.00;;;;;;5072479;28;20210;-70
2022/06/25 12:44:33;;;;;;;6.75;3.38;;;25.10;1.00;;;;;;5072389;28;20643;-71
2022/06/25 12:47:03;;;;;;;6.00;2.67;;;25.50;99.70;;;;;;5072496;28;20208;-70
2022/06/25 12:49:42;;;;;;;4.20;2.65;;;26.00;1.00;;;;;;5076880;28;20188;-70
2022/06/25 12:52:07;;;;;;;3.13;2.60;;;26.40;1.00;;;;;;5074797;28;20172;-71
2022/06/25 12:54:41;;;;;;;5.15;2.30;;;26.40;1.00;;;;;;5076661;28;20576;-71
2022/06/25 12:57:07;;;;;;;2.70;1.95;;;26.00;1.00;;;;;;5076438;28;20242;-71
2022/06/25 12:59:33;;;;;;;3.25;1.83;;;25.50;1.00;;;;;;5075402;28;20566;-70
2022/06/25 13:01:59;;;;;;;2.53;2.08;;;25.20;99.90;;;;;;5076796;28;20160;-69
2022/06/25 13:04:24;;;;;;;5.03;2.53;;;25.00;99.90;;;;;;5076032;28;20656;-70
2022/06/25 13:06:50;;;;;;;2.83;2.20;;;24.30;99.90;;;;;;5075542;28;20292;-70